Brevard, North Carolina
Current Conditions -  °F | °C
As of 9:17 PM on Monday 22 Dec 2014 (Local Time) from KAVL Reporting Station
Light Rain Light Rain  
Wind Chill:   Ceiling: 400
Heat Index:   Visibility: 4mi
Dew Point:   Wind: 9mph
Humidity: 93%   Direction: 190°S
Pressure: 29.99"   Gusts: NA
Location:  35.23°N, 82.73°W
Report Text: KAVL 230217Z 19008KT 4SM -RA BR OVC004 04/03 A2999 RMK AO2 RAB07 P0000 T00440033
Loading
Personal Weather Stations






























Interactive Weather Map New forecast layout! Learn more

10-Day Weather Forecast

Advertisements
Track Severe Weather on mobile